createdAt,value
2018-08-03T00:07:36.329Z,10.17
2018-08-03T00:10:06.673Z,8.50
2018-08-03T00:12:35.530Z,9.10
2018-08-03T00:15:03.823Z,8.97
2018-08-03T00:17:33.227Z,9.17
2018-08-03T00:20:01.590Z,9.13
2018-08-03T00:22:29.725Z,9.07
2018-08-03T00:24:57.839Z,8.43
2018-08-03T00:44:42.502Z,9.07
2018-08-03T00:47:11.771Z,9.10
2018-08-03T00:49:40.017Z,9.20
2018-08-03T01:09:26.848Z,10.43
2018-08-03T01:11:55.267Z,9.87
2018-08-03T01:14:24.044Z,9.80
2018-08-03T01:34:06.892Z,10.17
2018-08-03T01:36:35.857Z,9.40
2018-08-03T01:39:05.666Z,10.47
2018-08-03T01:41:34.090Z,9.90
2018-08-03T01:44:02.286Z,9.80
2018-08-03T01:46:30.459Z,9.57
2018-08-03T01:48:58.651Z,9.60
2018-08-03T01:51:26.831Z,9.80
2018-08-03T01:53:55.388Z,9.93
2018-08-03T01:56:23.563Z,9.63
2018-08-03T01:58:51.682Z,10.50
2018-08-03T02:01:19.890Z,9.50
2018-08-03T02:03:48.848Z,9.70
2018-08-03T02:06:17.579Z,9.27
2018-08-03T02:08:45.727Z,9.80
2018-08-03T02:11:13.974Z,9.33
2018-08-03T02:30:57.566Z,9.30
2018-08-03T02:33:26.963Z,9.43
2018-08-03T02:53:09.934Z,9.10
2018-08-03T02:55:38.060Z,9.57
2018-08-03T02:58:07.245Z,10.00
2018-08-03T03:00:35.543Z,9.20
2018-08-03T03:20:19.006Z,9.70
2018-08-03T03:22:47.114Z,9.70
2018-08-03T03:25:15.253Z,8.93
2018-08-03T03:27:43.375Z,9.50
2018-08-03T03:30:11.550Z,9.50
2018-08-03T03:32:39.737Z,10.43
2018-08-03T03:35:08.878Z,9.63
2018-08-03T03:37:37.169Z,9.23
2018-08-03T03:40:05.515Z,8.90
2018-08-03T03:42:33.643Z,8.97
2018-08-03T03:45:01.967Z,9.70
2018-08-03T03:47:33.426Z,9.90
2018-08-03T03:50:01.579Z,9.30
2018-08-03T03:52:29.673Z,8.70
2018-08-03T03:54:57.790Z,8.90
2018-08-03T03:57:27.536Z,9.27
2018-08-03T03:59:56.431Z,9.77
2018-08-03T04:02:24.491Z,9.13
2018-08-03T04:04:52.636Z,9.40
2018-08-03T04:07:20.739Z,9.97
2018-08-03T04:09:48.822Z,9.30
2018-08-03T04:12:16.961Z,9.47
2018-08-03T04:14:45.691Z,9.60
2018-08-03T04:17:13.809Z,8.67
2018-08-03T04:19:41.940Z,9.40
2018-08-03T04:22:10.177Z,9.60
2018-08-03T04:24:41.823Z,8.90
2018-08-03T04:27:10.051Z,8.77
2018-08-03T04:29:38.594Z,9.40
2018-08-03T04:32:07.075Z,9.80
2018-08-03T04:34:35.179Z,9.50
2018-08-03T04:37:03.306Z,9.27
2018-08-03T04:39:31.882Z,9.70
2018-08-03T04:41:59.997Z,9.17
2018-08-03T04:44:30.586Z,9.70
2018-08-03T04:46:58.771Z,10.10
2018-08-03T04:49:26.942Z,9.40
2018-08-03T04:51:57.415Z,9.00
2018-08-03T04:54:27.227Z,9.53
2018-08-03T04:56:56.177Z,9.03
2018-08-03T04:59:24.453Z,10.47
2018-08-03T05:01:53.150Z,9.90
2018-08-03T05:04:21.275Z,9.20
2018-08-03T05:06:49.860Z,8.90
2018-08-03T05:09:18.011Z,9.57
2018-08-03T05:11:46.195Z,9.20
2018-08-03T05:14:16.583Z,9.53
2018-08-03T05:16:44.722Z,9.03
2018-08-03T05:19:12.855Z,9.00
2018-08-03T05:21:41.046Z,9.90
2018-08-03T05:24:11.348Z,9.10
2018-08-03T05:58:25.946Z,8.53
2018-08-03T06:00:55.957Z,9.37
2018-08-03T06:03:27.336Z,8.40
2018-08-03T06:06:14.752Z,9.40
2018-08-03T06:08:56.038Z,8.90
2018-08-03T06:11:24.266Z,9.13
2018-08-03T06:13:53.748Z,8.63
2018-08-03T06:16:22.147Z,9.40
2018-08-03T06:18:50.215Z,8.47
2018-08-03T06:21:19.246Z,8.40
2018-08-03T06:23:47.812Z,9.67
2018-08-03T06:26:16.134Z,9.10
2018-08-03T06:28:44.434Z,8.50
2018-08-03T06:31:12.599Z,9.47
2018-08-03T06:33:40.662Z,8.37
2018-08-03T06:36:09.444Z,10.03
2018-08-03T06:38:37.622Z,8.97
2018-08-03T06:41:07.232Z,9.80
2018-08-03T06:43:35.665Z,9.03
2018-08-03T06:46:04.991Z,13.30
2018-08-03T06:48:35.995Z,9.50
2018-08-03T06:51:30.540Z,9.70
2018-08-03T06:54:01.046Z,9.57
2018-08-03T06:56:29.397Z,8.77
2018-08-03T06:58:58.368Z,8.23
2018-08-03T07:01:26.474Z,8.87
2018-08-03T07:03:54.677Z,8.20
2018-08-03T07:06:22.770Z,8.23
2018-08-03T07:08:51.309Z,8.50
2018-08-03T07:11:20.166Z,8.47
2018-08-03T07:13:49.251Z,8.23
2018-08-03T07:16:17.745Z,8.23
2018-08-03T07:18:46.707Z,8.40
2018-08-03T07:21:15.882Z,8.23
2018-08-03T07:23:44.026Z,8.17
2018-08-03T07:26:15.098Z,8.50
2018-08-03T07:28:44.210Z,7.77
2018-08-03T07:31:14.467Z,7.80
2018-08-03T07:33:42.770Z,8.27
2018-08-03T07:36:10.885Z,8.47
2018-08-03T07:38:40.771Z,8.03
2018-08-03T07:41:09.793Z,8.00
2018-08-03T07:43:38.395Z,8.20
2018-08-03T07:46:08.801Z,7.90
2018-08-03T07:48:38.171Z,7.67
2018-08-03T07:51:06.546Z,7.50
2018-08-03T07:53:34.731Z,7.83
2018-08-03T07:56:04.026Z,7.40
2018-08-03T07:58:32.772Z,7.83
2018-08-03T08:01:01.402Z,7.87
2018-08-03T08:03:31.882Z,7.90
2018-08-03T08:06:01.429Z,7.60
2018-08-03T08:08:29.651Z,6.97
2018-08-03T08:10:58.010Z,7.77
2018-08-03T08:13:26.633Z,6.97
2018-08-03T08:15:54.717Z,7.87
2018-08-03T08:18:23.557Z,7.63
2018-08-03T08:20:51.635Z,7.80
2018-08-03T08:23:19.732Z,7.50
2018-08-03T08:25:48.702Z,8.60
2018-08-03T08:28:17.387Z,7.93
2018-08-03T08:48:00.395Z,7.77
2018-08-03T08:50:30.106Z,6.63
2018-08-03T08:52:58.832Z,7.33
2018-08-03T08:55:27.772Z,7.57
2018-08-03T08:57:57.011Z,6.93
2018-08-03T09:00:25.151Z,6.87
2018-08-03T09:02:54.101Z,6.97
2018-08-03T09:05:22.208Z,7.10
2018-08-03T09:07:50.391Z,7.07
2018-08-03T09:10:19.355Z,6.70
2018-08-03T09:12:47.583Z,7.67
2018-08-03T09:15:15.676Z,6.70
2018-08-03T09:17:43.844Z,7.23
2018-08-03T09:20:12.549Z,6.73
2018-08-03T09:22:42.229Z,6.90
2018-08-03T09:25:10.526Z,7.57
2018-08-03T09:27:38.711Z,7.40
2018-08-03T09:30:08.433Z,6.23
2018-08-03T09:32:37.812Z,6.20
2018-08-03T09:35:07.016Z,7.10
2018-08-03T09:37:35.218Z,6.63
2018-08-03T09:40:05.200Z,6.90
2018-08-03T09:42:34.640Z,7.00
2018-08-03T09:45:03.387Z,6.63
2018-08-03T09:47:33.079Z,7.33
2018-08-03T09:50:02.100Z,6.70
2018-08-03T10:09:44.947Z,6.40
2018-08-03T10:12:13.240Z,5.73
2018-08-03T10:14:42.162Z,5.60
2018-08-03T10:17:11.639Z,5.83
2018-08-03T10:19:40.857Z,6.10
2018-08-03T10:39:23.030Z,6.30
2018-08-03T10:41:51.106Z,6.67
2018-08-03T10:44:19.215Z,6.10
2018-08-03T10:46:47.426Z,5.50
2018-08-03T10:49:15.515Z,5.70
2018-08-03T10:51:43.700Z,6.30
2018-08-03T10:54:11.932Z,5.70
2018-08-03T10:56:40.055Z,6.00
2018-08-03T10:59:09.039Z,5.70
2018-08-03T11:01:37.176Z,5.03
2018-08-03T11:04:05.377Z,5.83
2018-08-03T11:06:33.445Z,5.03
2018-08-03T11:09:01.747Z,5.90
2018-08-03T11:11:29.876Z,5.80
2018-08-03T11:13:58.024Z,6.37
2018-08-03T11:16:26.142Z,5.90
2018-08-03T11:36:12.458Z,6.10
2018-08-03T11:38:40.832Z,5.50
2018-08-03T11:41:09.075Z,5.10
2018-08-03T11:43:38.030Z,5.40
2018-08-03T11:46:06.426Z,6.00
2018-08-03T11:48:36.034Z,5.10
2018-08-03T12:08:18.845Z,5.20
2018-08-03T12:10:47.175Z,5.00
2018-08-03T12:13:16.126Z,5.05
2018-08-03T12:15:44.622Z,4.78
2018-08-03T12:18:15.256Z,4.80
2018-08-03T12:20:46.285Z,4.97
2018-08-03T12:23:16.102Z,4.47
2018-08-03T12:25:45.316Z,4.78
2018-08-03T12:28:13.738Z,4.55
2018-08-03T12:30:42.328Z,5.00
2018-08-03T12:33:11.464Z,4.95
2018-08-03T12:52:53.804Z,5.08
2018-08-03T12:55:21.941Z,5.58
2018-08-03T12:57:50.300Z,4.97
2018-08-03T13:00:18.853Z,4.47
2018-08-03T13:02:47.402Z,4.92
2018-08-03T13:05:16.612Z,4.80
2018-08-03T13:24:59.209Z,5.30
2018-08-03T13:27:27.429Z,4.42
2018-08-03T13:29:55.493Z,4.67
2018-08-03T13:32:23.567Z,4.58
2018-08-03T13:34:51.743Z,4.75
2018-08-03T13:37:19.917Z,4.40
2018-08-03T13:39:48.013Z,4.80
2018-08-03T13:42:16.118Z,4.30
2018-08-03T13:44:44.253Z,4.03
2018-08-03T13:47:12.450Z,4.00
2018-08-03T13:49:40.542Z,4.33
2018-08-03T13:52:10.265Z,4.60
2018-08-03T13:54:38.354Z,4.28
2018-08-03T13:57:06.473Z,4.78
2018-08-03T13:59:34.600Z,4.20
2018-08-03T14:02:14.334Z,3.80
2018-08-03T14:21:56.789Z,4.05
2018-08-03T14:41:39.825Z,4.45
2018-08-03T14:44:08.627Z,4.65
2018-08-03T14:46:37.422Z,4.33
2018-08-03T14:49:05.889Z,4.05
2018-08-03T14:51:33.996Z,4.58
2018-08-03T14:54:02.154Z,4.17
2018-08-03T14:56:30.409Z,4.75
2018-08-03T14:58:58.582Z,4.90
2018-08-03T15:01:26.907Z,4.28
2018-08-03T15:21:08.599Z,4.33
2018-08-03T15:23:36.802Z,4.95
2018-08-03T15:26:05.027Z,3.70
2018-08-03T15:28:33.215Z,4.28
2018-08-03T15:31:01.403Z,3.55
2018-08-03T15:33:29.503Z,3.80
2018-08-03T15:35:57.687Z,4.25
2018-08-03T15:55:40.512Z,4.10
2018-08-03T15:58:08.686Z,3.87
2018-08-03T16:00:36.854Z,3.90
2018-08-03T16:03:05.123Z,4.17
2018-08-03T16:05:33.368Z,3.42
2018-08-03T16:08:02.148Z,4.00
2018-08-03T16:10:31.124Z,3.72
2018-08-03T16:12:59.901Z,4.08
2018-08-03T16:15:28.095Z,4.22
2018-08-03T16:17:58.062Z,4.35
2018-08-03T16:21:16.675Z,3.80
2018-08-03T16:23:49.070Z,4.40
2018-08-03T16:26:17.903Z,4.55
2018-08-03T16:28:46.323Z,4.60
2018-08-03T16:31:14.477Z,4.42
2018-08-03T16:33:42.695Z,4.50
2018-08-03T16:36:12.154Z,4.78
2018-08-03T16:38:40.926Z,5.37
2018-08-03T16:41:09.135Z,4.92
2018-08-03T16:43:37.240Z,4.33
2018-08-03T16:46:06.227Z,4.78
2018-08-03T16:48:35.532Z,4.50
2018-08-03T16:51:04.219Z,4.60
2018-08-03T16:53:34.012Z,4.43
2018-08-03T17:13:16.798Z,4.50
2018-08-03T17:15:46.356Z,4.10
2018-08-03T17:18:14.641Z,4.23
2018-08-03T17:20:43.081Z,4.47
2018-08-03T17:23:11.886Z,4.30
2018-08-03T17:25:40.776Z,4.20
2018-08-03T17:28:09.195Z,4.67
2018-08-03T17:30:38.277Z,4.30
2018-08-03T17:33:06.987Z,4.93
2018-08-03T17:35:35.808Z,4.57
2018-08-03T17:38:04.050Z,4.67
2018-08-03T17:40:32.250Z,4.53
2018-08-03T17:43:01.534Z,5.77
2018-08-03T17:45:30.279Z,6.03
2018-08-03T17:47:58.840Z,5.20
2018-08-03T17:50:27.426Z,4.77
2018-08-03T17:52:55.789Z,4.33
2018-08-03T17:55:24.216Z,4.43
2018-08-03T17:57:53.397Z,4.33
2018-08-03T18:00:21.609Z,4.70
2018-08-03T18:02:50.050Z,4.00
2018-08-03T18:05:18.610Z,4.50
2018-08-03T18:25:04.191Z,4.67
2018-08-03T18:27:35.378Z,4.60
2018-08-03T18:30:05.002Z,4.43
2018-08-03T18:32:33.318Z,3.97
2018-08-03T18:35:01.977Z,5.10
2018-08-03T18:37:30.107Z,5.37
2018-08-03T18:40:03.712Z,4.70
2018-08-03T18:42:32.083Z,4.20
2018-08-03T18:45:00.310Z,5.13
2018-08-03T18:47:28.482Z,4.80
2018-08-03T18:49:56.688Z,4.47
2018-08-03T18:52:24.934Z,4.70
2018-08-03T19:12:07.807Z,17.40
2018-08-03T19:14:36.610Z,8.33
2018-08-03T19:17:05.021Z,8.10
2018-08-03T19:19:37.426Z,6.47
2018-08-03T19:39:20.631Z,8.17
2018-08-03T19:41:48.817Z,7.80
2018-08-03T19:44:16.977Z,8.23
2018-08-03T19:46:45.203Z,7.50
2018-08-03T19:49:13.412Z,7.80
2018-08-03T19:51:41.510Z,8.90
2018-08-03T19:54:09.711Z,10.87
2018-08-03T19:56:38.174Z,8.07
2018-08-03T19:59:06.508Z,8.10
2018-08-03T20:01:34.715Z,8.10
2018-08-03T20:21:17.306Z,6.83
2018-08-03T20:23:45.581Z,6.60
2018-08-03T20:26:13.781Z,6.17
2018-08-03T20:28:42.116Z,5.83
2018-08-03T20:31:10.246Z,6.40
2018-08-03T20:33:38.351Z,5.60
2018-08-03T20:36:06.560Z,6.43
2018-08-03T20:38:34.817Z,6.47
2018-08-03T20:41:03.317Z,6.07
2018-08-03T21:00:46.256Z,6.00
2018-08-03T21:03:14.444Z,7.03
2018-08-03T21:05:42.671Z,6.33
2018-08-03T21:08:11.109Z,6.47
2018-08-03T21:10:39.224Z,6.47
2018-08-03T21:13:07.306Z,6.63
2018-08-03T21:15:35.437Z,6.23
2018-08-03T21:18:03.917Z,6.57
2018-08-03T21:20:32.003Z,7.00
2018-08-03T21:40:14.687Z,8.00
2018-08-03T21:42:42.789Z,7.30
2018-08-03T22:02:25.304Z,6.30
2018-08-03T22:04:53.538Z,6.20
2018-08-03T22:07:21.730Z,6.30
2018-08-03T22:27:04.858Z,5.80
2018-08-03T22:29:33.080Z,12.33
2018-08-03T22:32:01.225Z,7.10
2018-08-03T22:34:29.464Z,6.20
2018-08-03T22:54:11.860Z,6.90
2018-08-03T23:13:55.216Z,6.37
2018-08-03T23:16:23.417Z,6.80
2018-08-03T23:18:51.582Z,6.67
2018-08-03T23:21:19.753Z,6.87
2018-08-03T23:41:03.045Z,7.17
2018-08-03T23:43:31.199Z,22.27
2018-08-03T23:45:59.294Z,7.10
2018-08-03T23:48:27.414Z,6.97
2018-08-03T23:50:55.779Z,6.97
2018-08-03T23:53:24.846Z,7.60
2018-08-03T23:55:53.012Z,7.30
2018-08-03T23:58:21.160Z,7.20
